Glacier National Park, MT

3:16 AM MDT on August 30, 2016 (GMT -0600)
Cut Bank Municipal | | Change Station
Active Advisory: Air Quality Alert Active Notice: Local Storm Report

Elev 3855 ft 48.61 °N, 112.38 °W | Updated 20 minutes ago

Clear
Clear
55 °F
Feels Like 55 °F
N
9
Wind Variable Wind from West

Today
High -- | Low -- °F
--% Chance of Precip.
Yesterday
High -- | Low -- °F
Precip. -- in
Pressure 30.06 in
Visibility 10.0 miles
Clouds Clear
Dew Point 47 °F
Humidity 74%
Rainfall 0.00 in
Snow Depth Not available.
6:49 AM 8:18 PM
Waning Crescent, 4% visible
METAR KCTB 300856Z AUTO 28008KT 10SM CLR 13/08 A3013 RMK AO2 SLP177 T01280083 55003
Pressure 30.06 in
Visibility 10.0 miles
Clouds Clear
Dew Point 47 °F
Humidity 74%
Rainfall 0.00 in
Snow Depth Not available.
6:49 AM 8:18 PM
Waning Crescent, 4% visible
METAR KCTB 300856Z AUTO 28008KT 10SM CLR 13/08 A3013 RMK AO2 SLP177 T01280083 55003

10-Day Weather Forecast

Almanac

Astronomy

Aug. 30, 2016 Rise Set
Actual Time
Civil Twilight
Nautical Twilight
Astronomical Twilight
Moon
Length of Visible Light
Length of Day
Tomorrow will be .
, % of the Moon is Illuminated

Today's Extremes

State Highs State Lows

Community

WunderPhotos

Upload Photos

1,935,795 photos uploaded!

WunderBlog® & News

Nearby

Air Quality

  Air Quality AQ Index Pollutant
Not available.

Snow Depth

Station Depth Elevation

Earthquake Activity

City Distance Mag. Time & Date
Minimum magnitude displayed is 2.5.

Coastal Water Temperatures

Place Temperature

Stations

Nearby Weather Stations

Station Location Temp. Windchill Dew Point Humidity Wind Precip. Elev Updated Type
                   

Watches & Warnings

Air Quality Alert
Issued: National Weather Service
quality at www.Todaysair.Mt.Gov.